createdAt,value
2023-05-08T00:01:19.280Z,1.10
2023-05-08T00:04:21.195Z,1.17
2023-05-08T00:07:23.438Z,1.27
2023-05-08T00:10:25.407Z,1.20
2023-05-08T00:13:27.402Z,1.20
2023-05-08T00:16:29.384Z,1.00
2023-05-08T00:19:31.945Z,1.20
2023-05-08T00:22:33.820Z,1.33
2023-05-08T00:25:35.812Z,1.47
2023-05-08T00:28:37.937Z,1.40
2023-05-08T00:31:40.235Z,1.37
2023-05-08T00:34:42.638Z,1.20
2023-05-08T00:37:44.633Z,1.50
2023-05-08T00:40:46.567Z,1.10
2023-05-08T00:43:48.477Z,1.03
2023-05-08T00:46:50.626Z,1.17
2023-05-08T00:49:53.231Z,1.60
2023-05-08T00:52:55.833Z,1.70
2023-05-08T00:55:59.788Z,1.60
2023-05-08T00:59:01.945Z,1.57
2023-05-08T01:02:04.354Z,1.00
2023-05-08T01:05:06.765Z,1.20
2023-05-08T01:08:08.782Z,1.30
2023-05-08T01:11:17.178Z,1.20
2023-05-08T01:14:54.092Z,1.33
2023-05-08T01:18:21.860Z,1.40
2023-05-08T01:21:28.106Z,1.20
2023-05-08T01:24:42.084Z,1.30
2023-05-08T01:28:05.354Z,1.10
2023-05-08T01:31:13.556Z,1.40
2023-05-08T01:34:27.164Z,0.97
2023-05-08T01:37:40.989Z,0.97
2023-05-08T01:41:00.681Z,1.10
2023-05-08T01:44:05.288Z,1.30
2023-05-08T01:47:08.235Z,2.03
2023-05-08T01:50:19.100Z,2.30
2023-05-08T01:53:57.627Z,2.87
2023-05-08T01:56:59.896Z,3.00
2023-05-08T02:00:03.831Z,2.83
2023-05-08T02:03:06.999Z,3.73
2023-05-08T02:06:09.911Z,4.30
2023-05-08T02:09:12.373Z,3.67
2023-05-08T02:12:16.218Z,2.53
2023-05-08T02:15:19.297Z,2.27
2023-05-08T02:18:22.536Z,2.90
2023-05-08T02:21:25.154Z,2.20
2023-05-08T02:24:27.469Z,2.13
2023-05-08T02:27:31.592Z,2.47
2023-05-08T02:30:34.111Z,3.13
2023-05-08T02:33:37.661Z,2.60
2023-05-08T02:36:40.339Z,3.57
2023-05-08T02:39:43.167Z,4.27
2023-05-08T02:42:45.509Z,3.00
2023-05-08T02:45:50.857Z,2.97
2023-05-08T02:49:28.311Z,3.47
2023-05-08T02:52:37.120Z,3.93
2023-05-08T02:55:41.229Z,3.23
2023-05-08T02:58:48.515Z,3.50
2023-05-08T03:01:57.188Z,3.57
2023-05-08T03:05:04.582Z,4.30
2023-05-08T03:08:16.755Z,5.93
2023-05-08T03:11:23.158Z,6.73
2023-05-08T03:14:27.378Z,7.10
2023-05-08T03:17:32.060Z,8.23
2023-05-08T03:20:38.214Z,8.33
2023-05-08T03:23:41.157Z,10.57
2023-05-08T03:26:43.986Z,9.87
2023-05-08T03:29:46.147Z,9.97
2023-05-08T03:32:48.494Z,10.77
2023-05-08T03:35:51.564Z,11.40
2023-05-08T03:38:53.505Z,10.27
2023-05-08T03:41:56.041Z,10.40
2023-05-08T03:44:58.239Z,10.20
2023-05-08T03:48:00.238Z,10.83
2023-05-08T03:51:03.515Z,9.83
2023-05-08T03:54:05.360Z,10.13
2023-05-08T03:57:07.516Z,10.23
2023-05-08T04:00:20.930Z,9.90
2023-05-08T04:03:38.756Z,10.73
2023-05-08T04:06:50.818Z,10.53
2023-05-08T04:10:03.315Z,10.73
2023-05-08T04:13:08.185Z,11.00
2023-05-08T04:16:27.636Z,11.80
2023-05-08T04:19:34.391Z,10.60
2023-05-08T04:22:40.325Z,11.53
2023-05-08T04:25:43.323Z,10.43
2023-05-08T04:28:46.972Z,10.63
2023-05-08T04:31:51.528Z,10.70
2023-05-08T04:34:53.562Z,11.10
2023-05-08T04:37:55.851Z,11.50
2023-05-08T04:40:57.824Z,10.77
2023-05-08T04:43:59.714Z,10.33
2023-05-08T04:47:01.748Z,11.17
2023-05-08T04:50:05.490Z,11.23
2023-05-08T04:53:07.444Z,11.10
2023-05-08T04:56:09.385Z,9.83
2023-05-08T04:59:12.483Z,10.67
2023-05-08T05:02:15.530Z,10.37
2023-05-08T05:05:17.603Z,9.40
2023-05-08T05:08:19.563Z,10.80
2023-05-08T05:11:21.668Z,10.73
2023-05-08T05:14:23.875Z,10.60
2023-05-08T05:17:25.878Z,10.07
2023-05-08T05:20:27.866Z,9.87
2023-05-08T05:23:29.674Z,10.40
2023-05-08T05:26:32.232Z,9.73
2023-05-08T05:29:34.134Z,10.10
2023-05-08T05:32:36.156Z,11.30
2023-05-08T05:35:37.969Z,9.63
2023-05-08T05:38:39.909Z,9.70
2023-05-08T05:41:44.589Z,9.83
2023-05-08T05:44:46.645Z,10.07
2023-05-08T05:47:50.499Z,10.50
2023-05-08T05:50:53.205Z,9.87
2023-05-08T05:53:55.401Z,10.73
2023-05-08T05:56:57.361Z,10.50
2023-05-08T06:00:00.253Z,9.97
2023-05-08T06:03:03.157Z,9.47
2023-05-08T06:06:05.804Z,9.93
2023-05-08T06:09:07.780Z,9.70
2023-05-08T06:12:09.925Z,10.67
2023-05-08T06:15:13.361Z,9.53
2023-05-08T06:18:15.913Z,10.50
2023-05-08T06:21:17.939Z,9.80
2023-05-08T06:24:19.881Z,9.80
2023-05-08T06:27:22.773Z,10.60
2023-05-08T06:30:24.630Z,9.47
2023-05-08T06:33:27.036Z,10.30
2023-05-08T06:36:29.060Z,11.30
2023-05-08T06:39:30.983Z,10.80
2023-05-08T06:42:32.907Z,10.63
2023-05-08T06:45:34.822Z,11.23
2023-05-08T06:48:36.693Z,12.33
2023-05-08T06:51:39.752Z,12.53
2023-05-08T06:54:42.241Z,13.00
2023-05-08T06:57:44.534Z,13.03
2023-05-08T07:00:46.425Z,13.50
2023-05-08T07:03:48.386Z,13.27
2023-05-08T07:06:50.861Z,14.20
2023-05-08T07:09:52.777Z,15.60
2023-05-08T07:12:54.718Z,14.97
2023-05-08T07:15:56.713Z,14.63
2023-05-08T07:18:58.639Z,13.80
2023-05-08T07:22:01.136Z,16.20
2023-05-08T07:25:03.026Z,15.30
2023-05-08T07:28:05.350Z,14.93
2023-05-08T07:31:07.773Z,15.57
2023-05-08T07:34:09.706Z,15.57
2023-05-08T07:37:12.249Z,16.80
2023-05-08T07:40:14.143Z,15.50
2023-05-08T07:43:16.129Z,15.67
2023-05-08T07:46:19.160Z,15.57
2023-05-08T07:49:21.543Z,15.40
2023-05-08T07:52:23.779Z,16.27
2023-05-08T07:55:25.752Z,17.97
2023-05-08T07:58:27.601Z,16.40
2023-05-08T08:01:29.473Z,17.27
2023-05-08T08:04:31.432Z,17.67
2023-05-08T08:07:33.431Z,17.53
2023-05-08T08:10:35.357Z,17.77
2023-05-08T08:13:37.499Z,16.53
2023-05-08T08:16:39.422Z,15.90
2023-05-08T08:19:41.352Z,16.13
2023-05-08T08:22:43.216Z,15.87
2023-05-08T08:25:45.168Z,16.07
2023-05-08T08:28:47.028Z,16.53
2023-05-08T08:31:48.980Z,15.97
2023-05-08T08:34:50.892Z,15.80
2023-05-08T08:37:52.806Z,15.93
2023-05-08T08:40:54.824Z,16.23
2023-05-08T08:43:56.870Z,16.20
2023-05-08T08:47:00.315Z,15.90
2023-05-08T08:50:05.573Z,16.60
2023-05-08T08:53:12.898Z,16.47
2023-05-08T08:56:15.938Z,16.67
2023-05-08T08:59:19.420Z,15.10
2023-05-08T09:02:23.190Z,16.73
2023-05-08T09:05:26.756Z,16.73
2023-05-08T09:08:28.903Z,15.63
2023-05-08T09:11:31.083Z,16.27
2023-05-08T09:14:35.668Z,17.37
2023-05-08T09:17:37.636Z,16.73
2023-05-08T09:20:41.575Z,15.33
2023-05-08T09:24:13.184Z,14.80
2023-05-08T09:27:22.788Z,15.80
2023-05-08T09:30:24.658Z,15.60
2023-05-08T09:33:28.800Z,16.10
2023-05-08T09:36:32.188Z,15.63
2023-05-08T09:39:34.954Z,15.17
2023-05-08T09:42:39.990Z,16.50
2023-05-08T09:45:42.876Z,16.00
2023-05-08T09:48:45.999Z,15.77
2023-05-08T09:51:55.055Z,16.10
2023-05-08T09:55:10.787Z,16.33
2023-05-08T09:58:12.805Z,15.30
2023-05-08T10:01:37.507Z,16.00
2023-05-08T10:04:39.809Z,15.20
2023-05-08T10:07:42.221Z,15.07
2023-05-08T10:10:44.233Z,14.27
2023-05-08T10:13:46.857Z,15.80
2023-05-08T10:16:50.346Z,14.37
2023-05-08T10:19:56.006Z,14.83
2023-05-08T10:22:58.932Z,15.17
2023-05-08T10:26:09.312Z,14.47
2023-05-08T10:29:19.796Z,15.10
2023-05-08T10:32:24.735Z,13.93
2023-05-08T10:35:28.211Z,15.93
2023-05-08T10:38:31.476Z,14.83
2023-05-08T10:41:33.761Z,14.53
2023-05-08T10:44:35.901Z,14.33
2023-05-08T10:48:15.348Z,16.40
2023-05-08T10:51:41.273Z,13.40
2023-05-08T10:55:04.822Z,14.37
2023-05-08T10:58:09.874Z,12.67
2023-05-08T11:01:13.337Z,12.77
2023-05-08T11:04:24.486Z,13.17
2023-05-08T11:07:58.342Z,12.68
2023-05-08T11:11:05.188Z,12.55
2023-05-08T11:14:07.138Z,11.73
2023-05-08T11:17:10.411Z,12.50
2023-05-08T11:20:12.462Z,13.23
2023-05-08T11:23:34.235Z,11.57
2023-05-08T11:26:42.868Z,10.10
2023-05-08T11:29:47.758Z,10.63
2023-05-08T11:33:05.327Z,11.93
2023-05-08T11:36:07.485Z,11.38
2023-05-08T11:39:13.306Z,13.13
2023-05-08T11:42:35.454Z,11.98
2023-05-08T11:45:39.229Z,14.50
2023-05-08T11:48:41.364Z,15.75
2023-05-08T11:51:48.650Z,13.75
2023-05-08T11:54:50.607Z,14.00
2023-05-08T11:57:56.164Z,14.20
2023-05-08T12:00:58.192Z,14.70
2023-05-08T12:04:10.832Z,15.10
2023-05-08T12:07:13.036Z,16.00
2023-05-08T12:10:16.471Z,17.42
2023-05-08T12:13:20.893Z,17.40
2023-05-08T12:16:24.398Z,17.23
2023-05-08T12:19:26.258Z,15.95
2023-05-08T12:22:28.326Z,17.13
2023-05-08T12:25:30.454Z,16.45
2023-05-08T12:28:35.767Z,17.02
2023-05-08T12:31:37.960Z,17.08
2023-05-08T12:34:39.895Z,16.27
2023-05-08T12:37:45.711Z,17.15
2023-05-08T12:40:53.554Z,16.65
2023-05-08T12:43:57.301Z,17.10
2023-05-08T12:46:59.751Z,17.63
2023-05-08T12:50:01.740Z,17.83
2023-05-08T12:53:05.192Z,17.33
2023-05-08T12:56:07.479Z,18.08
2023-05-08T12:59:09.457Z,17.95
2023-05-08T13:02:18.150Z,18.23
2023-05-08T13:05:22.429Z,17.00
2023-05-08T13:08:32.166Z,17.77
2023-05-08T13:11:34.765Z,17.92
2023-05-08T13:14:36.783Z,17.33
2023-05-08T13:17:38.726Z,17.38
2023-05-08T13:20:41.197Z,18.07
2023-05-08T13:23:43.699Z,18.87
2023-05-08T13:26:46.290Z,17.73
2023-05-08T13:29:48.171Z,16.58
2023-05-08T13:32:50.932Z,16.60
2023-05-08T13:35:54.236Z,17.27
2023-05-08T13:38:58.287Z,16.67
2023-05-08T13:42:00.195Z,18.53
2023-05-08T13:45:02.210Z,18.27
2023-05-08T13:48:04.290Z,17.70
2023-05-08T13:51:06.381Z,18.97
2023-05-08T13:54:08.647Z,18.73
2023-05-08T13:57:11.356Z,18.53
2023-05-08T14:00:13.801Z,17.48
2023-05-08T14:03:15.877Z,17.63
2023-05-08T14:06:17.810Z,18.40
2023-05-08T14:09:19.835Z,16.80
2023-05-08T14:12:21.850Z,18.00
2023-05-08T14:15:27.039Z,17.33
2023-05-08T14:18:36.648Z,16.23
2023-05-08T14:21:39.215Z,16.77
2023-05-08T14:24:41.243Z,17.13
2023-05-08T14:27:43.186Z,16.03
2023-05-08T14:30:44.973Z,16.47
2023-05-08T14:33:46.758Z,16.70
2023-05-08T14:36:48.683Z,17.20
2023-05-08T14:39:54.217Z,16.03
2023-05-08T14:42:56.357Z,15.83
2023-05-08T14:45:58.432Z,15.50
2023-05-08T14:49:00.339Z,16.50
2023-05-08T14:52:02.881Z,15.37
2023-05-08T14:55:05.367Z,14.40
2023-05-08T14:58:07.696Z,15.23
2023-05-08T15:01:10.404Z,14.27
2023-05-08T15:04:12.551Z,14.77
2023-05-08T15:07:14.443Z,14.90
2023-05-08T15:10:16.583Z,14.17
2023-05-08T15:13:18.926Z,14.83
2023-05-08T15:16:21.269Z,14.53
2023-05-08T15:19:23.170Z,14.47
2023-05-08T15:22:26.429Z,14.00
2023-05-08T15:25:29.052Z,15.13
2023-05-08T15:28:31.256Z,14.10
2023-05-08T15:31:33.128Z,14.97
2023-05-08T15:34:35.032Z,14.50
2023-05-08T15:37:38.342Z,12.90
2023-05-08T15:40:40.762Z,13.37
2023-05-08T15:43:45.406Z,13.50
2023-05-08T15:46:48.144Z,13.43
2023-05-08T15:49:59.061Z,12.63
2023-05-08T15:53:01.020Z,13.27
2023-05-08T15:56:05.956Z,13.30
2023-05-08T15:59:08.355Z,12.47
2023-05-08T16:02:10.546Z,13.33
2023-05-08T16:05:12.859Z,13.37
2023-05-08T16:08:15.062Z,12.80
2023-05-08T16:11:17.006Z,12.57
2023-05-08T16:14:20.185Z,13.30
2023-05-08T16:17:22.049Z,13.43
2023-05-08T16:20:24.335Z,14.57
2023-05-08T16:23:26.493Z,13.13
2023-05-08T16:26:28.546Z,13.87
2023-05-08T16:29:30.403Z,13.77
2023-05-08T16:32:32.344Z,13.63
2023-05-08T16:35:34.328Z,13.30
2023-05-08T16:38:36.293Z,12.87
2023-05-08T16:41:38.157Z,14.07
2023-05-08T16:44:40.187Z,13.87
2023-05-08T16:47:42.248Z,13.17
2023-05-08T16:50:44.198Z,13.17
2023-05-08T16:53:46.012Z,14.07
2023-05-08T16:56:47.935Z,13.53
2023-05-08T16:59:50.035Z,14.07
2023-05-08T17:02:52.325Z,14.70
2023-05-08T17:05:54.316Z,13.70
2023-05-08T17:08:56.117Z,15.07
2023-05-08T17:11:59.750Z,14.43
2023-05-08T17:15:01.834Z,13.93
2023-05-08T17:18:03.985Z,15.13
2023-05-08T17:21:06.017Z,13.77
2023-05-08T17:24:08.256Z,13.87
2023-05-08T17:27:10.733Z,13.67
2023-05-08T17:30:15.137Z,14.13
2023-05-08T17:33:17.802Z,13.63
2023-05-08T17:36:19.665Z,12.40
2023-05-08T17:39:22.093Z,13.57
2023-05-08T17:42:24.216Z,13.73
2023-05-08T17:45:26.902Z,13.03
2023-05-08T17:48:28.764Z,13.30
2023-05-08T17:51:31.260Z,13.73
2023-05-08T17:54:33.377Z,12.43
2023-05-08T17:57:35.336Z,13.50
2023-05-08T18:00:38.084Z,12.97
2023-05-08T18:03:40.012Z,13.70
2023-05-08T18:06:43.644Z,13.73
2023-05-08T18:09:45.653Z,13.10
2023-05-08T18:12:48.022Z,12.57
2023-05-08T18:15:50.276Z,12.70
2023-05-08T18:18:52.811Z,13.33
2023-05-08T18:21:54.663Z,12.77
2023-05-08T18:24:57.931Z,13.43
2023-05-08T18:28:01.014Z,12.40
2023-05-08T18:31:04.041Z,11.70
2023-05-08T18:34:06.460Z,12.57
2023-05-08T18:37:08.557Z,11.53
2023-05-08T18:40:11.084Z,12.30
2023-05-08T18:43:13.105Z,11.90
2023-05-08T18:46:14.983Z,11.97
2023-05-08T18:49:17.003Z,11.20
2023-05-08T18:52:18.942Z,12.80
2023-05-08T18:55:20.910Z,11.57
2023-05-08T18:58:22.773Z,11.07
2023-05-08T19:01:27.753Z,10.63
2023-05-08T19:04:29.637Z,11.17
2023-05-08T19:07:32.074Z,11.93
2023-05-08T19:10:34.361Z,10.67
2023-05-08T19:13:37.094Z,10.93
2023-05-08T19:16:39.367Z,11.20
2023-05-08T19:19:41.320Z,12.07
2023-05-08T19:22:43.367Z,10.67
2023-05-08T19:25:45.504Z,10.83
2023-05-08T19:28:47.352Z,11.00
2023-05-08T19:31:49.494Z,9.73
2023-05-08T19:34:51.413Z,10.10
2023-05-08T19:37:53.622Z,10.43
2023-05-08T19:40:57.622Z,10.50
2023-05-08T19:44:00.289Z,10.13
2023-05-08T19:47:03.914Z,10.40
2023-05-08T19:50:07.554Z,10.13
2023-05-08T19:53:10.620Z,9.77
2023-05-08T19:56:12.801Z,9.07
2023-05-08T19:59:14.725Z,9.57
2023-05-08T20:02:17.048Z,9.20
2023-05-08T20:05:31.346Z,9.33
2023-05-08T20:08:34.169Z,9.23
2023-05-08T20:11:35.960Z,9.63
2023-05-08T20:14:38.298Z,8.17
2023-05-08T20:17:40.193Z,8.50
2023-05-08T20:20:42.232Z,7.97
2023-05-08T20:23:44.079Z,8.00
2023-05-08T20:26:46.033Z,7.30
2023-05-08T20:29:47.946Z,7.50
2023-05-08T20:32:49.986Z,6.93
2023-05-08T20:35:53.456Z,6.83
2023-05-08T20:38:55.436Z,6.27
2023-05-08T20:41:57.286Z,6.87
2023-05-08T20:44:59.293Z,6.13
2023-05-08T20:48:01.687Z,7.00
2023-05-08T20:51:04.210Z,6.63
2023-05-08T20:54:06.121Z,5.93
2023-05-08T20:57:08.455Z,6.57
2023-05-08T21:00:10.890Z,6.43
2023-05-08T21:03:13.888Z,6.40
2023-05-08T21:06:15.728Z,6.33
2023-05-08T21:09:17.703Z,6.83
2023-05-08T21:12:19.633Z,6.63
2023-05-08T21:15:21.571Z,6.70
2023-05-08T21:18:23.680Z,7.23
2023-05-08T21:21:25.668Z,6.60
2023-05-08T21:24:28.947Z,6.20
2023-05-08T21:27:31.204Z,5.73
2023-05-08T21:30:34.883Z,6.33
2023-05-08T21:33:38.715Z,6.13
2023-05-08T21:36:40.781Z,6.07
2023-05-08T21:39:43.469Z,6.80
2023-05-08T21:42:45.424Z,7.10
2023-05-08T21:45:47.308Z,6.17
2023-05-08T21:48:49.504Z,5.83
2023-05-08T21:51:53.162Z,6.00
2023-05-08T21:54:55.776Z,6.23
2023-05-08T21:57:57.551Z,6.17
2023-05-08T22:00:59.420Z,6.10
2023-05-08T22:04:01.405Z,5.67
2023-05-08T22:07:03.488Z,5.70
2023-05-08T22:10:06.022Z,5.87
2023-05-08T22:13:08.033Z,5.87
2023-05-08T22:16:09.981Z,6.40
2023-05-08T22:19:11.975Z,5.70
2023-05-08T22:22:13.805Z,6.43
2023-05-08T22:25:16.078Z,6.47
2023-05-08T22:28:18.289Z,6.67
2023-05-08T22:31:20.198Z,5.93
2023-05-08T22:34:22.449Z,5.93
2023-05-08T22:37:25.024Z,5.67
2023-05-08T22:40:27.729Z,5.33
2023-05-08T22:43:29.629Z,5.53
2023-05-08T22:46:33.464Z,5.17
2023-05-08T22:49:35.578Z,5.77
2023-05-08T22:52:38.717Z,5.83
2023-05-08T22:55:40.758Z,6.00
2023-05-08T22:58:42.645Z,5.43
2023-05-08T23:01:44.577Z,5.87
2023-05-08T23:04:47.034Z,6.10
2023-05-08T23:07:49.110Z,6.10
2023-05-08T23:10:51.142Z,6.20
2023-05-08T23:13:53.317Z,7.07
2023-05-08T23:16:55.309Z,6.33
2023-05-08T23:19:57.251Z,6.57
2023-05-08T23:22:59.237Z,6.90
2023-05-08T23:26:04.912Z,7.03
2023-05-08T23:29:07.140Z,6.63
2023-05-08T23:32:09.019Z,7.70
2023-05-08T23:35:11.190Z,8.27
2023-05-08T23:38:13.093Z,8.40
2023-05-08T23:41:15.036Z,8.77
2023-05-08T23:44:17.994Z,7.93
2023-05-08T23:47:21.223Z,7.67
2023-05-08T23:50:23.476Z,8.37
2023-05-08T23:53:25.702Z,8.43
2023-05-08T23:56:27.656Z,7.30
2023-05-08T23:59:29.555Z,7.33
